Terminal Aerodrome Forecast
Issued by NWS

Home | Current Version | Previous Version | Text Only | Print | Product List | Glossary On
Versions: 1 2 3 4 5 6 7 8 9 10 11 12 13 14
000
FTUS43 KJKL 271725
TAFSJS
TAF
KSJS 271725Z 2718/2818 18007KT P6SM VCSH SCT030 BKN060 OVC120
     FM280100 25007KT P6SM FEW030 SCT090
     FM280900 00000KT P6SM FEW080
     FM281100 VRB03KT P6SM FEW110=

USA.gov is the U.S. government's official web portal to all federal, state and local government web resources and services.